Time;durP1;ratioP1;P1;durP2;ratioP2;P2;SDS_P1;SDS_P2;PMS_P1;PMS_P2;Temp;Humidity;BMP_temperature;BMP_pressure;BME280_temperature;BME280_humidity;BME280_pressure;Samples;Min_cycle;Max_cycle;Signal;HPM_P1;HPM_P2
2023/08/19 00:00:02;;;;;;;;;;;;;;;26.34;58.59;100817.16;6177212;23;19916;-83
2023/08/19 00:03:08;;;;;;;;;;;;;;;26.36;58.06;100816.75;6173755;23;19912;-85
2023/08/19 00:06:10;;;;;;;;;;;;;;;26.38;58.05;100809.50;6157867;23;19912;-86
2023/08/19 00:09:08;;;;;;;;;;;;;;;26.37;57.97;100807.94;6158095;23;19912;-87
2023/08/19 00:12:06;;;;;;;;;;;;;;;26.31;57.96;100809.59;6176592;23;19916;-87
2023/08/19 00:15:04;;;;;;;;;;;;;;;26.34;58.11;100808.78;6156954;23;19916;-86
2023/08/19 00:18:02;;;;;;;;;;;;;;;26.32;57.80;100808.41;6156366;23;19927;-87
2023/08/19 00:21:01;;;;;;;;;;;;;;;26.26;58.06;100810.06;6156884;23;19913;-87
2023/08/19 00:23:59;;;;;;;;;;;;;;;26.22;57.81;100803.75;6154243;23;19936;-85
2023/08/19 00:26:57;;;;;;;;;;;;;;;26.30;57.90;100810.84;6153849;23;19912;-86
2023/08/19 00:29:55;;;;;;;;;;;;;;;26.23;58.04;100810.94;6154194;23;20272;-86
2023/08/19 00:32:46;;;;;;;;;;;;;;;26.21;57.73;100810.50;6197713;23;19913;-87
2023/08/19 00:35:32;;;;;;;;;;;;;;;26.24;57.80;100806.94;6176445;23;19912;-86
2023/08/19 00:38:16;;;;;;;;;;;;;;;26.14;58.24;100802.28;6176853;23;20275;-86
2023/08/19 00:41:03;;;;;;;;;;;;;;;26.18;57.80;100805.00;6161007;23;19916;-84
2023/08/19 00:43:47;;;;;;;;;;;;;;;26.19;57.80;100801.78;6214524;23;20466;-83
2023/08/19 00:46:32;;;;;;;;;;;;;;;26.21;57.81;100809.75;6194864;23;19912;-84
2023/08/19 00:49:16;;;;;;;;;;;;;;;26.10;58.13;100809.91;6166540;23;19916;-85
2023/08/19 00:52:00;;;;;;;;;;;;;;;25.92;58.30;100815.69;6208302;23;19916;-85
2023/08/19 00:54:45;;;;;;;;;;;;;;;25.65;59.26;100811.25;6182315;23;19912;-86
2023/08/19 00:57:31;;;;;;;;;;;;;;;25.66;59.17;100812.81;6160970;23;20248;-86
2023/08/19 01:00:15;;;;;;;;;;;;;;;25.66;59.46;100815.59;6180818;23;19912;-84
2023/08/19 01:03:00;;;;;;;;;;;;;;;25.58;59.87;100808.56;6198341;23;19912;-85
2023/08/19 01:05:54;;;;;;;;;;;;;;;25.64;59.76;100812.47;6159648;23;20251;-86
2023/08/19 01:08:42;;;;;;;;;;;;;;;25.60;59.73;100809.69;6204624;23;20256;-85
2023/08/19 01:11:27;;;;;;;;;;;;;;;25.54;60.22;100805.78;6162793;23;19920;-84
2023/08/19 01:14:19;;;;;;;;;;;;;;;25.55;59.96;100807.38;6181389;23;19912;-86
2023/08/19 01:17:08;;;;;;;;;;;;;;;25.29;60.49;100816.41;6156912;23;19916;-86
2023/08/19 01:19:54;;;;;;;;;;;;;;;25.33;60.87;100811.56;6158311;23;19912;-86
2023/08/19 01:22:49;;;;;;;;;;;;;;;25.45;60.52;100809.03;6175958;23;19912;-85
2023/08/19 01:25:36;;;;;;;;;;;;;;;25.50;60.50;100805.00;6178373;23;19916;-85
2023/08/19 01:28:20;;;;;;;;;;;;;;;25.55;60.01;100808.16;6177301;23;19912;-86
2023/08/19 01:31:05;;;;;;;;;;;;;;;25.57;59.95;100804.19;6199972;23;19916;-85
2023/08/19 01:33:49;;;;;;;;;;;;;;;25.40;60.47;100803.91;6198845;23;19912;-86
2023/08/19 01:36:38;;;;;;;;;;;;;;;25.55;60.20;100801.78;6177396;23;20296;-86
2023/08/19 01:39:24;;;;;;;;;;;;;;;25.57;60.11;100798.59;6156684;23;19916;-86
2023/08/19 01:42:08;;;;;;;;;;;;;;;25.54;59.99;100792.66;6177382;23;20344;-85
2023/08/19 01:44:54;;;;;;;;;;;;;;;25.56;60.02;100795.03;6156640;23;19916;-85
2023/08/19 01:47:39;;;;;;;;;;;;;;;25.46;60.05;100793.91;6155907;23;19916;-86
2023/08/19 01:50:24;;;;;;;;;;;;;;;25.29;60.73;100792.13;6198655;23;19920;-86
2023/08/19 01:53:09;;;;;;;;;;;;;;;25.42;60.58;100795.94;6156288;23;19912;-85
2023/08/19 01:55:53;;;;;;;;;;;;;;;25.47;60.17;100789.94;6176818;23;19912;-85
2023/08/19 01:58:38;;;;;;;;;;;;;;;25.57;59.94;100793.03;6176407;23;19912;-86
2023/08/19 02:01:23;;;;;;;;;;;;;;;25.62;59.83;100798.16;6155431;23;19916;-85
2023/08/19 02:04:07;;;;;;;;;;;;;;;25.56;59.84;100800.59;6176687;23;19912;-86
2023/08/19 02:06:53;;;;;;;;;;;;;;;25.29;60.03;100794.91;6195906;23;20336;-85
2023/08/19 02:09:38;;;;;;;;;;;;;;;25.23;60.59;100799.34;6195647;23;19912;-85
2023/08/19 02:12:23;;;;;;;;;;;;;;;25.43;60.20;100805.91;6174849;23;19946;-83
2023/08/19 02:15:08;;;;;;;;;;;;;;;25.47;60.02;100800.28;6176271;23;19916;-85
2023/08/19 02:17:53;;;;;;;;;;;;;;;25.46;60.00;100807.84;6193717;23;19912;-86
2023/08/19 02:20:37;;;;;;;;;;;;;;;25.38;60.14;100806.34;6179194;23;19912;-86
2023/08/19 02:23:22;;;;;;;;;;;;;;;25.45;59.98;100809.03;6161403;23;19912;-86
2023/08/19 02:26:06;;;;;;;;;;;;;;;25.46;59.91;100810.63;6182165;23;19912;-86
2023/08/19 02:28:51;;;;;;;;;;;;;;;25.48;59.81;100808.22;6161420;23;19912;-85
2023/08/19 02:31:36;;;;;;;;;;;;;;;25.46;59.96;100799.47;6181547;23;19917;-85
2023/08/19 02:34:21;;;;;;;;;;;;;;;25.57;59.50;100804.97;6180527;23;19912;-86
2023/08/19 02:37:05;;;;;;;;;;;;;;;25.51;59.70;100801.81;6201269;23;19942;-85
2023/08/19 02:39:49;;;;;;;;;;;;;;;25.44;60.05;100799.13;6178338;23;19916;-85
2023/08/19 02:42:34;;;;;;;;;;;;;;;25.23;60.39;100796.56;6173708;23;19920;-85
2023/08/19 02:45:18;;;;;;;;;;;;;;;25.20;60.99;100797.38;6154717;23;19912;-85
2023/08/19 02:48:03;;;;;;;;;;;;;;;25.12;60.79;100801.44;6174963;23;19916;-87
2023/08/19 02:50:51;;;;;;;;;;;;;;;24.99;61.29;100795.56;6154640;23;19920;-87
2023/08/19 02:53:36;;;;;;;;;;;;;;;25.10;61.23;100799.06;6168226;23;19912;-86
2023/08/19 02:56:20;;;;;;;;;;;;;;;25.16;61.05;100801.41;6154101;23;19912;-87
2023/08/19 02:59:04;;;;;;;;;;;;;;;25.33;60.65;100797.66;6196145;23;20360;-86
2023/08/19 03:01:49;;;;;;;;;;;;;;;25.39;60.38;100807.13;6175494;23;20248;-84
2023/08/19 03:04:33;;;;;;;;;;;;;;;25.39;60.28;100805.16;6174424;23;19912;-87
2023/08/19 03:07:18;;;;;;;;;;;;;;;25.35;60.33;100801.59;6194979;23;19912;-87
2023/08/19 03:10:02;;;;;;;;;;;;;;;25.31;60.38;100798.06;6172165;23;19912;-85
2023/08/19 03:12:47;;;;;;;;;;;;;;;25.05;61.04;100795.94;6172336;23;19913;-85
2023/08/19 03:15:32;;;;;;;;;;;;;;;25.22;60.62;100788.63;6172512;23;19912;-85
2023/08/19 03:18:18;;;;;;;;;;;;;;;25.19;61.00;100789.44;6172829;23;19912;-84
2023/08/19 03:21:02;;;;;;;;;;;;;;;25.29;60.51;100792.13;6194233;23;19913;-85
2023/08/19 03:23:46;;;;;;;;;;;;;;;25.31;60.45;100791.69;6175461;23;19912;-86
2023/08/19 03:26:31;;;;;;;;;;;;;;;25.33;60.57;100790.09;6198234;23;19912;-85
2023/08/19 03:29:16;;;;;;;;;;;;;;;25.32;60.40;100788.50;6177127;23;19912;-85
2023/08/19 03:32:00;;;;;;;;;;;;;;;25.28;60.64;100787.75;6177195;23;20264;-86
2023/08/19 03:34:45;;;;;;;;;;;;;;;25.27;60.42;100783.38;6155760;23;19916;-86
2023/08/19 03:37:29;;;;;;;;;;;;;;;25.26;60.60;100792.94;6197623;23;20252;-86
2023/08/19 03:40:13;;;;;;;;;;;;;;;25.25;60.82;100787.78;6176620;23;19913;-86
2023/08/19 03:42:58;;;;;;;;;;;;;;;25.10;61.24;100787.13;6175441;23;20344;-85
2023/08/19 03:45:42;;;;;;;;;;;;;;;24.77;62.49;100785.03;6165206;23;19912;-84
2023/08/19 03:48:27;;;;;;;;;;;;;;;24.75;62.37;100784.63;6199978;23;19913;-85
2023/08/19 03:51:12;;;;;;;;;;;;;;;24.84;62.61;100787.75;6163917;23;19917;-86
2023/08/19 03:53:56;;;;;;;;;;;;;;;25.00;61.93;100793.59;6180398;23;19916;-86
2023/08/19 03:56:40;;;;;;;;;;;;;;;25.03;61.71;100795.56;6199905;23;19912;-85
2023/08/19 03:59:25;;;;;;;;;;;;;;;25.05;61.86;100799.50;6179794;23;20255;-86
2023/08/19 04:02:10;;;;;;;;;;;;;;;25.14;61.46;100788.66;6159150;23;19913;-87
2023/08/19 04:05:01;;;;;;;;;;;;;;;25.16;61.44;100796.63;6201482;23;19920;-85
2023/08/19 04:07:46;;;;;;;;;;;;;;;25.30;60.89;100799.25;6158333;23;19916;-85
2023/08/19 04:10:31;;;;;;;;;;;;;;;25.36;60.66;100800.38;6201136;23;19916;-86
2023/08/19 04:13:17;;;;;;;;;;;;;;;25.34;60.42;100797.25;6177307;23;19916;-85
2023/08/19 04:16:02;;;;;;;;;;;;;;;25.27;60.81;100802.09;6172009;23;19924;-85
2023/08/19 04:18:48;;;;;;;;;;;;;;;25.28;60.96;100810.03;6155982;23;19913;-86
2023/08/19 04:21:35;;;;;;;;;;;;;;;25.33;60.76;100806.81;6186850;23;20454;-86
2023/08/19 04:24:21;;;;;;;;;;;;;;;25.33;60.63;100815.16;6177267;23;20339;-86
2023/08/19 04:27:05;;;;;;;;;;;;;;;25.34;60.55;100813.94;6155502;23;19912;-85
2023/08/19 04:29:50;;;;;;;;;;;;;;;25.38;60.43;100811.13;6169645;23;19900;-84
2023/08/19 04:32:36;;;;;;;;;;;;;;;25.36;60.58;100825.44;6155439;23;19920;-86
2023/08/19 04:35:27;;;;;;;;;;;;;;;25.38;60.34;100822.25;6154115;23;20336;-86
2023/08/19 04:38:12;;;;;;;;;;;;;;;25.25;60.96;100819.19;6196473;23;19916;-85
2023/08/19 04:40:59;;;;;;;;;;;;;;;25.31;60.64;100825.09;6196322;23;20240;-86
2023/08/19 04:43:47;;;;;;;;;;;;;;;25.39;60.45;100827.44;6176200;23;19913;-85
2023/08/19 04:46:33;;;;;;;;;;;;;;;25.48;60.10;100824.16;6176254;23;20332;-86
2023/08/19 04:49:18;;;;;;;;;;;;;;;25.47;60.18;100837.28;6154840;23;19916;-86
2023/08/19 04:52:04;;;;;;;;;;;;;;;25.45;60.36;100836.88;6195662;23;19916;-86
2023/08/19 04:54:50;;;;;;;;;;;;;;;25.52;60.15;100836.03;6155184;23;19912;-83
2023/08/19 04:57:36;;;;;;;;;;;;;;;25.50;60.46;100839.22;6154854;23;19912;-86
2023/08/19 05:00:21;;;;;;;;;;;;;;;25.58;60.05;100841.97;6158451;23;20259;-83
2023/08/19 05:03:05;;;;;;;;;;;;;;;25.58;60.22;100839.19;6178104;23;19912;-85
2023/08/19 05:05:51;;;;;;;;;;;;;;;25.61;59.98;100835.56;6201264;23;19912;-85
2023/08/19 05:08:40;;;;;;;;;;;;;;;25.75;59.72;100836.19;6158933;23;20251;-85
2023/08/19 05:11:25;;;;;;;;;;;;;;;25.94;59.20;100829.22;6175782;23;19920;-83
2023/08/19 05:14:12;;;;;;;;;;;;;;;25.94;59.04;100840.38;6175462;23;19912;-86
2023/08/19 05:16:57;;;;;;;;;;;;;;;25.90;59.49;100842.41;6196835;23;19912;-86
2023/08/19 05:19:41;;;;;;;;;;;;;;;25.95;59.30;100831.59;6154880;23;19916;-84
2023/08/19 05:22:26;;;;;;;;;;;;;;;26.05;59.39;100838.22;6155065;23;19912;-86
2023/08/19 05:25:10;;;;;;;;;;;;;;;26.15;59.13;100834.53;6155474;23;20344;-85
2023/08/19 05:27:56;;;;;;;;;;;;;;;26.24;58.90;100839.59;6177662;23;20524;-87
2023/08/19 05:30:41;;;;;;;;;;;;;;;26.10;59.98;100842.56;6178199;23;19916;-87
2023/08/19 05:33:25;;;;;;;;;;;;;;;26.27;58.93;100847.91;6155932;23;19912;-86
2023/08/19 05:36:10;;;;;;;;;;;;;;;25.98;60.47;100853.03;6177791;23;19912;-85
2023/08/19 05:38:54;;;;;;;;;;;;;;;26.11;60.12;100846.94;6175065;23;19920;-85
2023/08/19 05:41:38;;;;;;;;;;;;;;;26.18;59.80;100855.97;6176205;23;19912;-87
2023/08/19 05:44:23;;;;;;;;;;;;;;;26.34;59.05;100852.59;6196531;23;19912;-88
2023/08/19 05:47:08;;;;;;;;;;;;;;;26.53;58.83;100854.72;6195754;23;19912;-86
2023/08/19 05:49:53;;;;;;;;;;;;;;;26.10;59.75;100860.06;6196177;23;19912;-86
2023/08/19 05:52:37;;;;;;;;;;;;;;;26.49;58.64;100855.97;6175644;23;19916;-86
2023/08/19 05:55:22;;;;;;;;;;;;;;;26.73;58.07;100852.03;6158241;23;19912;-86
2023/08/19 05:58:06;;;;;;;;;;;;;;;26.96;57.37;100860.47;6175674;23;19912;-86
2023/08/19 06:00:58;;;;;;;;;;;;;;;27.15;56.51;100858.97;6198310;23;19912;-86
2023/08/19 06:03:43;;;;;;;;;;;;;;;27.28;55.77;100857.13;6155332;23;19912;-83
2023/08/19 06:06:28;;;;;;;;;;;;;;;27.42;55.68;100859.69;6177889;23;19912;-85
2023/08/19 06:09:12;;;;;;;;;;;;;;;27.55;55.25;100857.06;6158808;23;19916;-84
2023/08/19 06:11:58;;;;;;;;;;;;;;;27.60;55.67;100860.16;6200010;23;20359;-85
2023/08/19 06:14:42;;;;;;;;;;;;;;;27.76;54.53;100867.84;6157726;23;19912;-82
2023/08/19 06:17:27;;;;;;;;;;;;;;;27.98;53.90;100859.81;6169531;23;20248;-83
2023/08/19 06:20:11;;;;;;;;;;;;;;;28.08;54.02;100856.81;6168624;23;20332;-81
2023/08/19 06:22:56;;;;;;;;;;;;;;;28.25;53.31;100854.06;6166276;23;20332;-82
2023/08/19 06:25:40;;;;;;;;;;;;;;;28.43;52.99;100865.69;6174990;23;19916;-82
2023/08/19 06:28:24;;;;;;;;;;;;;;;28.52;52.51;100865.84;6196766;23;19916;-82
2023/08/19 06:31:10;;;;;;;;;;;;;;;28.66;52.36;100859.94;6154319;23;19921;-84
2023/08/19 06:33:55;;;;;;;;;;;;;;;28.82;51.90;100862.00;6169556;23;19916;-83
2023/08/19 06:36:40;;;;;;;;;;;;;;;28.94;51.31;100866.13;6178857;23;19913;-83
2023/08/19 06:39:26;;;;;;;;;;;;;;;29.04;50.36;100865.84;6178843;23;19917;-82
2023/08/19 06:42:11;;;;;;;;;;;;;;;29.41;49.81;100866.56;6157248;23;19917;-83
2023/08/19 06:44:58;;;;;;;;;;;;;;;29.48;49.82;100869.16;6177162;23;19917;-84
2023/08/19 06:47:45;;;;;;;;;;;;;;;29.58;49.19;100871.66;6178515;23;19913;-84
2023/08/19 06:50:29;;;;;;;;;;;;;;;29.96;48.59;100868.25;6169597;23;19920;-81
2023/08/19 06:53:14;;;;;;;;;;;;;;;29.58;49.31;100865.25;6171918;23;20352;-87
2023/08/19 06:56:02;;;;;;;;;;;;;;;29.22;50.76;100866.19;6169798;23;19913;-88
2023/08/19 06:58:52;;;;;;;;;;;;;;;28.97;50.88;100868.03;6171719;23;19912;-87
2023/08/19 07:01:37;;;;;;;;;;;;;;;28.78;51.68;100859.28;6170092;23;19917;-85
2023/08/19 07:04:27;;;;;;;;;;;;;;;28.72;51.75;100869.41;6167874;23;19916;-85
2023/08/19 07:07:13;;;;;;;;;;;;;;;28.60;52.14;100867.25;6188925;23;19912;-84
2023/08/19 07:09:58;;;;;;;;;;;;;;;28.52;52.35;100868.66;6167046;23;19913;-85
2023/08/19 07:12:43;;;;;;;;;;;;;;;28.47;52.32;100869.97;6166905;23;20350;-86
2023/08/19 07:15:28;;;;;;;;;;;;;;;28.42;52.50;100864.09;6170834;23;19912;-86
2023/08/19 07:18:15;;;;;;;;;;;;;;;28.42;52.62;100866.88;6154030;23;19916;-85
2023/08/19 07:21:00;;;;;;;;;;;;;;;28.41;52.57;100868.91;6174464;23;19912;-86
2023/08/19 07:23:45;;;;;;;;;;;;;;;28.40;52.24;100861.72;6189038;23;19912;-85
2023/08/19 07:26:30;;;;;;;;;;;;;;;28.42;52.11;100869.69;6153470;23;20279;-85
2023/08/19 07:29:15;;;;;;;;;;;;;;;28.44;52.19;100867.25;6152989;23;19916;-85
2023/08/19 07:31:59;;;;;;;;;;;;;;;28.46;52.05;100864.78;6174113;23;19916;-86
2023/08/19 07:34:44;;;;;;;;;;;;;;;28.45;51.91;100863.22;6153832;23;19912;-87
2023/08/19 07:37:29;;;;;;;;;;;;;;;28.47;51.91;100866.38;6152976;23;19912;-86
2023/08/19 07:40:14;;;;;;;;;;;;;;;28.48;51.89;100867.97;6172271;23;19912;-86
2023/08/19 07:42:58;;;;;;;;;;;;;;;28.54;52.10;100871.03;6152116;23;19912;-87
2023/08/19 07:45:43;;;;;;;;;;;;;;;28.55;51.90;100870.56;6194515;23;20260;-85
2023/08/19 07:48:27;;;;;;;;;;;;;;;28.56;51.97;100863.75;6173238;23;19916;-87
2023/08/19 07:51:12;;;;;;;;;;;;;;;28.62;51.83;100873.22;6150892;23;20343;-86
2023/08/19 07:53:57;;;;;;;;;;;;;;;28.64;51.63;100876.38;6176430;23;19913;-87
2023/08/19 07:56:41;;;;;;;;;;;;;;;28.65;51.40;100880.75;6173142;23;19912;-87
2023/08/19 07:59:25;;;;;;;;;;;;;;;28.70;51.44;100876.66;6150934;23;19916;-84
2023/08/19 08:02:10;;;;;;;;;;;;;;;28.74;51.36;100866.97;6170260;23;20260;-88
2023/08/19 08:04:55;;;;;;;;;;;;;;;28.77;51.24;100871.69;6152615;23;19916;-85
2023/08/19 08:07:39;;;;;;;;;;;;;;;28.76;51.43;100872.13;6196972;23;19912;-87
2023/08/19 08:10:24;;;;;;;;;;;;;;;28.82;51.15;100868.38;6175589;23;19912;-84
2023/08/19 08:13:08;;;;;;;;;;;;;;;28.85;50.90;100867.50;6193135;23;19920;-83
2023/08/19 08:15:53;;;;;;;;;;;;;;;28.86;50.77;100865.47;6193714;23;19912;-83
2023/08/19 08:18:37;;;;;;;;;;;;;;;28.92;51.06;100869.34;6151153;23;19916;-84
2023/08/19 08:21:22;;;;;;;;;;;;;;;28.97;50.60;100865.22;6151437;23;19912;-83
2023/08/19 08:24:06;;;;;;;;;;;;;;;29.00;50.70;100865.16;6163387;23;19912;-83
2023/08/19 08:26:51;;;;;;;;;;;;;;;29.07;50.47;100867.75;6152342;23;19912;-84
2023/08/19 08:29:36;;;;;;;;;;;;;;;29.11;50.39;100862.84;6172029;23;19920;-83
2023/08/19 08:32:20;;;;;;;;;;;;;;;29.12;50.35;100866.44;6153006;23;19916;-84
2023/08/19 08:35:05;;;;;;;;;;;;;;;29.19;49.99;100874.69;6176273;23;19916;-83
2023/08/19 08:37:49;;;;;;;;;;;;;;;29.25;49.78;100875.72;6175947;23;19916;-83
2023/08/19 08:40:33;;;;;;;;;;;;;;;29.30;49.57;100876.00;6175889;23;19912;-84
2023/08/19 08:43:18;;;;;;;;;;;;;;;29.37;49.32;100875.03;6196565;23;19912;-83
2023/08/19 08:46:03;;;;;;;;;;;;;;;29.46;49.20;100874.41;6195898;23;19912;-85
2023/08/19 08:48:48;;;;;;;;;;;;;;;29.52;48.43;100872.63;6153587;23;19912;-84
2023/08/19 08:51:33;;;;;;;;;;;;;;;29.53;49.03;100872.19;6196863;23;19917;-85
2023/08/19 08:54:18;;;;;;;;;;;;;;;29.58;48.74;100879.28;6174369;23;19912;-86
2023/08/19 08:57:03;;;;;;;;;;;;;;;29.66;48.60;100878.63;6153243;23;20259;-86
2023/08/19 08:59:47;;;;;;;;;;;;;;;29.70;48.50;100873.75;6174272;23;20336;-85
2023/08/19 09:02:31;;;;;;;;;;;;;;;29.75;48.28;100875.22;6173860;23;19912;-86
2023/08/19 09:05:18;;;;;;;;;;;;;;;29.80;48.02;100880.28;6174702;23;19921;-85
2023/08/19 09:08:03;;;;;;;;;;;;;;;29.83;48.00;100881.41;6153155;23;19913;-86
2023/08/19 09:10:49;;;;;;;;;;;;;;;29.87;48.04;100887.72;6153738;23;19913;-85
2023/08/19 09:13:34;;;;;;;;;;;;;;;29.97;47.75;100881.03;6154432;23;20247;-85
2023/08/19 09:16:18;;;;;;;;;;;;;;;30.01;47.38;100876.91;6174632;23;20248;-85
2023/08/19 09:19:03;;;;;;;;;;;;;;;30.10;46.70;100879.84;6195802;23;19912;-84
2023/08/19 09:21:48;;;;;;;;;;;;;;;30.13;46.83;100878.16;6175867;23;19912;-84
2023/08/19 09:24:32;;;;;;;;;;;;;;;30.16;46.78;100869.66;6174797;23;19912;-84
2023/08/19 09:27:17;;;;;;;;;;;;;;;30.21;46.59;100875.94;6175436;23;19912;-83
2023/08/19 09:30:01;;;;;;;;;;;;;;;30.27;46.42;100877.75;6174593;23;19916;-85
2023/08/19 09:32:46;;;;;;;;;;;;;;;30.33;46.12;100881.56;6174434;23;19924;-85
2023/08/19 09:35:36;;;;;;;;;;;;;;;30.33;46.33;100873.13;6153680;23;19916;-85
2023/08/19 09:38:20;;;;;;;;;;;;;;;30.34;46.42;100859.88;6160696;23;19912;-86
2023/08/19 09:41:08;;;;;;;;;;;;;;;30.24;46.62;100875.81;6160897;23;19916;-86
2023/08/19 09:43:53;;;;;;;;;;;;;;;30.29;46.58;100872.47;6160536;23;19913;-86
2023/08/19 09:46:38;;;;;;;;;;;;;;;30.37;46.42;100871.03;6201370;23;19912;-86
2023/08/19 09:49:22;;;;;;;;;;;;;;;30.50;45.95;100859.81;6180297;23;19912;-86
2023/08/19 09:52:14;;;;;;;;;;;;;;;30.50;46.01;100868.25;6178249;23;19916;-85
2023/08/19 09:55:00;;;;;;;;;;;;;;;30.52;45.85;100866.56;6158038;23;20336;-85
2023/08/19 09:57:45;;;;;;;;;;;;;;;30.62;45.94;100864.66;6162843;23;19916;-85
2023/08/19 10:00:30;;;;;;;;;;;;;;;30.59;45.75;100862.75;6177098;23;19901;-86
2023/08/19 10:03:15;;;;;;;;;;;;;;;30.55;45.78;100865.66;6183963;23;19916;-86
2023/08/19 10:05:59;;;;;;;;;;;;;;;30.56;45.69;100864.44;6157067;23;19912;-87
2023/08/19 10:08:46;;;;;;;;;;;;;;;30.67;45.63;100863.31;6158021;23;19912;-88
2023/08/19 10:11:32;;;;;;;;;;;;;;;30.78;45.17;100861.72;6199377;23;20335;-88
2023/08/19 10:14:20;;;;;;;;;;;;;;;30.90;44.76;100858.13;6160034;23;19916;-89
2023/08/19 10:17:05;;;;;;;;;;;;;;;30.97;44.63;100857.91;6173376;23;19912;-90
2023/08/19 10:19:53;;;;;;;;;;;;;;;31.08;44.48;100862.41;6200581;23;19912;-90
2023/08/19 10:22:41;;;;;;;;;;;;;;;31.15;44.26;100859.34;6158283;23;19916;-89
2023/08/19 10:25:26;;;;;;;;;;;;;;;31.18;44.28;100856.44;6160741;23;19916;-90
2023/08/19 10:28:22;;;;;;;;;;;;;;;31.18;44.20;100856.44;6202503;23;19912;-89
2023/08/19 10:31:06;;;;;;;;;;;;;;;31.10;44.05;100855.09;6157991;23;20251;-90
2023/08/19 10:33:53;;;;;;;;;;;;;;;31.00;44.66;100859.00;6179958;23;19912;-89
2023/08/19 10:36:39;;;;;;;;;;;;;;;31.04;44.55;100870.94;6160369;23;19912;-89
2023/08/19 10:39:29;;;;;;;;;;;;;;;31.12;44.32;100861.03;6180267;23;19912;-86
2023/08/19 10:42:13;;;;;;;;;;;;;;;31.03;44.42;100855.34;6179330;23;19912;-85
2023/08/19 10:44:58;;;;;;;;;;;;;;;30.97;44.40;100862.72;6158334;23;19912;-85
2023/08/19 10:47:44;;;;;;;;;;;;;;;31.24;44.31;100860.22;6160064;23;19916;-87
2023/08/19 10:50:34;;;;;;;;;;;;;;;31.29;44.21;100868.06;6163578;23;19912;-86
2023/08/19 10:53:19;;;;;;;;;;;;;;;31.46;43.62;100859.47;6204177;23;19916;-87
2023/08/19 10:56:11;;;;;;;;;;;;;;;31.50;43.77;100860.13;6158805;23;19912;-87
2023/08/19 10:58:56;;;;;;;;;;;;;;;31.31;43.94;100853.56;6199997;23;19916;-87
2023/08/19 11:01:41;;;;;;;;;;;;;;;31.30;44.00;100858.41;6154892;23;19912;-87
2023/08/19 11:04:25;;;;;;;;;;;;;;;31.38;43.77;100858.94;6175312;23;19912;-88
2023/08/19 11:07:10;;;;;;;;;;;;;;;31.54;43.68;100850.34;6154146;23;19916;-88
2023/08/19 11:09:55;;;;;;;;;;;;;;;31.73;43.14;100851.31;6174866;23;20352;-87
2023/08/19 11:12:44;;;;;;;;;;;;;;;31.81;42.86;100858.22;6175223;23;19917;-87
2023/08/19 11:15:29;;;;;;;;;;;;;;;31.62;43.19;100857.31;6174711;23;19912;-87
2023/08/19 11:18:20;;;;;;;;;;;;;;;31.77;42.97;100863.19;6159188;23;19916;-88
2023/08/19 11:21:04;;;;;;;;;;;;;;;31.80;42.78;100857.44;6177505;23;19912;-86
2023/08/19 11:23:49;;;;;;;;;;;;;;;31.88;43.12;100852.34;6173356;23;19917;-86
2023/08/19 11:26:35;;;;;;;;;;;;;;;32.07;42.22;100847.59;6151231;23;19916;-85
2023/08/19 11:29:20;;;;;;;;;;;;;;;32.02;42.06;100848.19;6173420;23;19912;-86
2023/08/19 11:32:05;;;;;;;;;;;;;;;31.84;42.55;100843.25;6152273;23;19916;-86
2023/08/19 11:34:50;;;;;;;;;;;;;;;31.83;43.01;100847.31;6152821;23;19912;-85
2023/08/19 11:37:34;;;;;;;;;;;;;;;31.79;42.44;100849.47;6172580;23;19916;-86
2023/08/19 11:40:19;;;;;;;;;;;;;;;31.78;42.68;100847.91;6172880;23;19913;-84
2023/08/19 11:43:11;;;;;;;;;;;;;;;31.87;42.59;100853.59;6199588;23;19912;-87
2023/08/19 11:45:55;;;;;;;;;;;;;;;32.01;42.33;100843.81;6173387;23;19912;-85
2023/08/19 11:48:39;;;;;;;;;;;;;;;32.05;42.39;100850.13;6170726;23;19916;-85
2023/08/19 11:51:25;;;;;;;;;;;;;;;32.05;42.30;100850.13;6193665;23;20342;-85
2023/08/19 11:54:10;;;;;;;;;;;;;;;32.08;42.33;100849.97;6152612;23;19912;-85
2023/08/19 11:56:55;;;;;;;;;;;;;;;32.14;41.99;100848.16;6151067;23;19916;-84
2023/08/19 11:59:40;;;;;;;;;;;;;;;32.16;42.26;100848.47;6193592;23;19916;-85
2023/08/19 12:02:26;;;;;;;;;;;;;;;32.15;42.14;100852.53;6172521;23;19916;-86
2023/08/19 12:05:11;;;;;;;;;;;;;;;32.13;41.99;100857.06;6150693;23;19916;-87
2023/08/19 12:07:55;;;;;;;;;;;;;;;32.15;41.93;100846.91;6151350;23;20336;-86
2023/08/19 12:10:40;;;;;;;;;;;;;;;32.26;41.84;100844.47;6193318;23;19912;-85
2023/08/19 12:13:27;;;;;;;;;;;;;;;32.25;41.99;100848.50;6165677;23;20524;-87
2023/08/19 12:16:11;;;;;;;;;;;;;;;32.15;41.87;100848.94;6151622;23;20340;-85
2023/08/19 12:18:59;;;;;;;;;;;;;;;32.14;42.19;100848.16;6150633;23;20251;-86
2023/08/19 12:21:44;;;;;;;;;;;;;;;32.28;42.13;100846.81;6151792;23;20339;-86
2023/08/19 12:24:30;;;;;;;;;;;;;;;32.44;41.48;100849.41;6193049;23;19912;-85
2023/08/19 12:27:14;;;;;;;;;;;;;;;32.31;41.69;100847.91;6172913;23;19916;-87
2023/08/19 12:29:59;;;;;;;;;;;;;;;32.56;41.81;100844.94;6173120;23;19912;-87
2023/08/19 12:32:43;;;;;;;;;;;;;;;32.72;41.08;100844.69;6167484;23;19920;-87
2023/08/19 12:35:28;;;;;;;;;;;;;;;32.60;41.26;100839.94;6194983;23;19917;-85
2023/08/19 12:38:16;;;;;;;;;;;;;;;32.72;41.40;100835.44;6172559;23;19912;-85
2023/08/19 12:41:01;;;;;;;;;;;;;;;32.74;40.75;100836.56;6154397;23;19912;-86
2023/08/19 12:43:46;;;;;;;;;;;;;;;32.81;41.31;100836.28;6169865;23;19924;-84
2023/08/19 12:46:32;;;;;;;;;;;;;;;32.75;41.00;100831.72;6177628;23;20603;-86
2023/08/19 12:49:17;;;;;;;;;;;;;;;32.83;41.29;100830.16;6156265;23;19912;-83
2023/08/19 12:52:02;;;;;;;;;;;;;;;32.92;41.29;100833.78;6173345;23;19920;-82
2023/08/19 12:54:47;;;;;;;;;;;;;;;32.92;41.23;100824.53;6198408;23;19916;-85
2023/08/19 12:57:31;;;;;;;;;;;;;;;33.13;40.30;100825.66;6176093;23;19916;-84
2023/08/19 13:00:16;;;;;;;;;;;;;;;33.31;39.97;100822.91;6175346;23;19916;-84
2023/08/19 13:03:00;;;;;;;;;;;;;;;33.53;39.71;100823.50;6196718;23;19913;-86
2023/08/19 13:05:46;;;;;;;;;;;;;;;33.75;39.37;100832.63;6176792;23;19916;-85
2023/08/19 13:08:30;;;;;;;;;;;;;;;33.80;39.51;100834.03;6174438;23;20248;-85
2023/08/19 13:11:15;;;;;;;;;;;;;;;34.01;38.76;100840.72;6174724;23;20344;-84
2023/08/19 13:14:00;;;;;;;;;;;;;;;34.06;38.73;100840.88;6154082;23;19917;-85
2023/08/19 13:16:45;;;;;;;;;;;;;;;34.17;37.96;100846.03;6178971;23;19912;-84
2023/08/19 13:19:30;;;;;;;;;;;;;;;34.09;38.64;100844.78;6183880;23;19912;-85
2023/08/19 13:22:17;;;;;;;;;;;;;;;34.13;37.77;100839.75;6155219;23;19913;-85
2023/08/19 13:25:06;;;;;;;;;;;;;;;34.05;38.57;100833.66;6198537;23;19916;-85
2023/08/19 13:27:50;;;;;;;;;;;;;;;34.29;37.45;100837.38;6178788;23;20348;-86
2023/08/19 13:30:35;;;;;;;;;;;;;;;34.33;37.56;100826.72;6156836;23;19912;-84
2023/08/19 13:33:20;;;;;;;;;;;;;;;34.33;38.22;100820.28;6154503;23;20251;-84
2023/08/19 13:36:04;;;;;;;;;;;;;;;34.38;37.00;100819.63;6177128;23;19912;-86
2023/08/19 13:38:49;;;;;;;;;;;;;;;34.46;37.20;100820.03;6184601;23;20251;-85
2023/08/19 13:41:34;;;;;;;;;;;;;;;34.52;37.06;100816.09;6155912;23;19912;-85
2023/08/19 13:44:18;;;;;;;;;;;;;;;34.54;36.32;100819.22;6156612;23;20339;-87
2023/08/19 13:47:02;;;;;;;;;;;;;;;34.60;35.95;100808.03;6180114;23;19936;-85
2023/08/19 13:49:47;;;;;;;;;;;;;;;34.44;37.31;100811.28;6176992;23;19916;-86
2023/08/19 13:52:35;;;;;;;;;;;;;;;34.40;37.48;100808.63;6197813;23;19917;-85
2023/08/19 13:55:19;;;;;;;;;;;;;;;34.50;36.65;100801.66;6176565;23;19912;-83
2023/08/19 13:58:04;;;;;;;;;;;;;;;34.61;36.43;100799.09;6177046;23;19912;-83
2023/08/19 14:00:49;;;;;;;;;;;;;;;34.62;36.93;100797.84;6176019;23;19913;-84
2023/08/19 14:03:34;;;;;;;;;;;;;;;34.63;36.44;100792.97;6199365;23;20336;-89
2023/08/19 14:06:18;;;;;;;;;;;;;;;34.53;36.75;100795.06;6178151;23;19912;-86
2023/08/19 14:09:03;;;;;;;;;;;;;;;34.45;37.01;100795.88;6175290;23;19916;-84